sensor_id;sensor_type;location;lat;lon;timestamp;pressure;altitude;pressure_sealevel;temperature
66170;BMP280;66757;44.024;20.456;2023-06-14T00:01:09;97655.31;;;16.14
66170;BMP280;66757;44.024;20.456;2023-06-14T00:03:34;97658.16;;;16.05
66170;BMP280;66757;44.024;20.456;2023-06-14T00:06:00;97656.41;;;16.44
66170;BMP280;66757;44.024;20.456;2023-06-14T00:08:25;97652.81;;;16.53
66170;BMP280;66757;44.024;20.456;2023-06-14T00:10:50;97650.88;;;16.53
66170;BMP280;66757;44.024;20.456;2023-06-14T00:13:16;97659.63;;;16.19
66170;BMP280;66757;44.024;20.456;2023-06-14T00:15:41;97659.69;;;15.91
66170;BMP280;66757;44.024;20.456;2023-06-14T00:18:07;97666.28;;;16.09
66170;BMP280;66757;44.024;20.456;2023-06-14T00:20:34;97667.72;;;16.38
66170;BMP280;66757;44.024;20.456;2023-06-14T00:23:00;97675.22;;;16.48
66170;BMP280;66757;44.024;20.456;2023-06-14T00:25:25;97667.38;;;16.55
66170;BMP280;66757;44.024;20.456;2023-06-14T00:27:51;97679.28;;;16.58
66170;BMP280;66757;44.024;20.456;2023-06-14T00:30:17;97672.81;;;16.27
66170;BMP280;66757;44.024;20.456;2023-06-14T00:32:43;97665.44;;;16.05
66170;BMP280;66757;44.024;20.456;2023-06-14T00:35:09;97675.16;;;16.13
66170;BMP280;66757;44.024;20.456;2023-06-14T00:37:34;97666.41;;;15.85
66170;BMP280;66757;44.024;20.456;2023-06-14T00:40:00;97668.75;;;15.86
66170;BMP280;66757;44.024;20.456;2023-06-14T00:42:26;97667.97;;;16.33
66170;BMP280;66757;44.024;20.456;2023-06-14T00:44:51;97669.00;;;16.44
66170;BMP280;66757;44.024;20.456;2023-06-14T00:47:17;97676.97;;;16.25
66170;BMP280;66757;44.024;20.456;2023-06-14T00:49:42;97671.69;;;16.28
66170;BMP280;66757;44.024;20.456;2023-06-14T00:52:08;97670.59;;;16.13
66170;BMP280;66757;44.024;20.456;2023-06-14T00:54:37;97671.63;;;16.25
66170;BMP280;66757;44.024;20.456;2023-06-14T00:57:02;97668.50;;;15.91
66170;BMP280;66757;44.024;20.456;2023-06-14T00:59:28;97658.38;;;15.85
66170;BMP280;66757;44.024;20.456;2023-06-14T01:01:53;97661.97;;;16.20
66170;BMP280;66757;44.024;20.456;2023-06-14T01:04:18;97661.00;;;16.12
66170;BMP280;66757;44.024;20.456;2023-06-14T01:07:01;97669.47;;;15.99
66170;BMP280;66757;44.024;20.456;2023-06-14T01:10:12;97656.75;;;16.11
66170;BMP280;66757;44.024;20.456;2023-06-14T01:12:21;97663.75;;;16.16
66170;BMP280;66757;44.024;20.456;2023-06-14T01:14:46;97655.84;;;16.04
66170;BMP280;66757;44.024;20.456;2023-06-14T01:17:13;97655.25;;;16.10
66170;BMP280;66757;44.024;20.456;2023-06-14T01:19:44;97653.75;;;16.13
66170;BMP280;66757;44.024;20.456;2023-06-14T01:22:11;97660.16;;;16.08
66170;BMP280;66757;44.024;20.456;2023-06-14T01:24:36;97650.22;;;15.93
66170;BMP280;66757;44.024;20.456;2023-06-14T01:27:04;97648.13;;;16.02
66170;BMP280;66757;44.024;20.456;2023-06-14T01:29:29;97649.44;;;16.08
66170;BMP280;66757;44.024;20.456;2023-06-14T01:31:58;97639.19;;;16.10
66170;BMP280;66757;44.024;20.456;2023-06-14T01:34:24;97636.06;;;16.08
66170;BMP280;66757;44.024;20.456;2023-06-14T01:36:49;97640.56;;;16.04
66170;BMP280;66757;44.024;20.456;2023-06-14T01:39:15;97649.94;;;15.98
66170;BMP280;66757;44.024;20.456;2023-06-14T01:41:41;97637.63;;;15.78
66170;BMP280;66757;44.024;20.456;2023-06-14T01:44:07;97647.91;;;15.64
66170;BMP280;66757;44.024;20.456;2023-06-14T01:46:33;97654.34;;;15.75
66170;BMP280;66757;44.024;20.456;2023-06-14T01:48:58;97649.66;;;15.72
66170;BMP280;66757;44.024;20.456;2023-06-14T01:51:24;97643.63;;;15.75
66170;BMP280;66757;44.024;20.456;2023-06-14T01:53:49;97647.25;;;15.67
66170;BMP280;66757;44.024;20.456;2023-06-14T01:56:15;97644.13;;;15.65
66170;BMP280;66757;44.024;20.456;2023-06-14T01:58:40;97641.91;;;15.67
66170;BMP280;66757;44.024;20.456;2023-06-14T02:01:06;97650.34;;;15.69
66170;BMP280;66757;44.024;20.456;2023-06-14T02:03:32;97652.06;;;15.61
66170;BMP280;66757;44.024;20.456;2023-06-14T02:05:57;97646.22;;;15.71
66170;BMP280;66757;44.024;20.456;2023-06-14T02:08:23;97646.72;;;15.61
66170;BMP280;66757;44.024;20.456;2023-06-14T02:10:48;97644.69;;;15.58
66170;BMP280;66757;44.024;20.456;2023-06-14T02:13:13;97651.94;;;15.58
66170;BMP280;66757;44.024;20.456;2023-06-14T02:15:39;97655.38;;;15.58
66170;BMP280;66757;44.024;20.456;2023-06-14T02:18:05;97645.41;;;15.55
66170;BMP280;66757;44.024;20.456;2023-06-14T02:20:30;97649.25;;;15.58
66170;BMP280;66757;44.024;20.456;2023-06-14T02:22:56;97656.72;;;15.64
66170;BMP280;66757;44.024;20.456;2023-06-14T02:25:22;97653.72;;;15.66
66170;BMP280;66757;44.024;20.456;2023-06-14T02:27:47;97654.91;;;15.68
66170;BMP280;66757;44.024;20.456;2023-06-14T02:30:13;97650.78;;;15.71
66170;BMP280;66757;44.024;20.456;2023-06-14T02:32:38;97654.09;;;15.52
66170;BMP280;66757;44.024;20.456;2023-06-14T02:35:05;97658.81;;;15.43
66170;BMP280;66757;44.024;20.456;2023-06-14T02:37:31;97650.22;;;15.50
66170;BMP280;66757;44.024;20.456;2023-06-14T02:39:56;97658.75;;;15.55
66170;BMP280;66757;44.024;20.456;2023-06-14T02:42:22;97659.03;;;15.50
66170;BMP280;66757;44.024;20.456;2023-06-14T02:44:47;97659.03;;;15.50
66170;BMP280;66757;44.024;20.456;2023-06-14T02:47:16;97657.16;;;15.39
66170;BMP280;66757;44.024;20.456;2023-06-14T02:49:41;97666.19;;;15.34
66170;BMP280;66757;44.024;20.456;2023-06-14T02:52:07;97668.53;;;15.35
66170;BMP280;66757;44.024;20.456;2023-06-14T02:54:34;97667.38;;;15.49
66170;BMP280;66757;44.024;20.456;2023-06-14T02:56:59;97677.09;;;15.57
66170;BMP280;66757;44.024;20.456;2023-06-14T02:59:25;97662.22;;;15.56
66170;BMP280;66757;44.024;20.456;2023-06-14T03:01:51;97670.91;;;15.53
66170;BMP280;66757;44.024;20.456;2023-06-14T03:04:16;97665.22;;;15.54
66170;BMP280;66757;44.024;20.456;2023-06-14T03:06:41;97671.97;;;15.36
66170;BMP280;66757;44.024;20.456;2023-06-14T03:09:09;97674.34;;;15.53
66170;BMP280;66757;44.024;20.456;2023-06-14T03:11:34;97675.00;;;15.62
66170;BMP280;66757;44.024;20.456;2023-06-14T03:14:00;97678.38;;;15.59
66170;BMP280;66757;44.024;20.456;2023-06-14T03:16:26;97665.00;;;15.59
66170;BMP280;66757;44.024;20.456;2023-06-14T03:18:54;97672.47;;;15.54
66170;BMP280;66757;44.024;20.456;2023-06-14T03:21:19;97669.38;;;15.40
66170;BMP280;66757;44.024;20.456;2023-06-14T03:23:48;97666.41;;;15.57
66170;BMP280;66757;44.024;20.456;2023-06-14T03:26:14;97680.75;;;15.49
66170;BMP280;66757;44.024;20.456;2023-06-14T03:28:40;97671.63;;;14.97
66170;BMP280;66757;44.024;20.456;2023-06-14T03:31:06;97666.63;;;14.84
66170;BMP280;66757;44.024;20.456;2023-06-14T03:33:31;97667.63;;;14.91
66170;BMP280;66757;44.024;20.456;2023-06-14T03:35:56;97666.16;;;15.06
66170;BMP280;66757;44.024;20.456;2023-06-14T03:38:22;97673.19;;;15.39
66170;BMP280;66757;44.024;20.456;2023-06-14T03:40:48;97663.34;;;15.15
66170;BMP280;66757;44.024;20.456;2023-06-14T03:43:13;97669.19;;;15.45
66170;BMP280;66757;44.024;20.456;2023-06-14T03:45:38;97679.00;;;15.84
66170;BMP280;66757;44.024;20.456;2023-06-14T03:48:04;97673.66;;;15.84
66170;BMP280;66757;44.024;20.456;2023-06-14T03:50:31;97671.19;;;15.91
66170;BMP280;66757;44.024;20.456;2023-06-14T03:52:57;97675.44;;;15.64
66170;BMP280;66757;44.024;20.456;2023-06-14T03:55:22;97677.84;;;15.42
66170;BMP280;66757;44.024;20.456;2023-06-14T03:57:50;97677.50;;;15.15
66170;BMP280;66757;44.024;20.456;2023-06-14T04:00:16;97685.03;;;15.53
66170;BMP280;66757;44.024;20.456;2023-06-14T04:02:41;97671.03;;;15.72
66170;BMP280;66757;44.024;20.456;2023-06-14T04:05:06;97668.91;;;15.78
66170;BMP280;66757;44.024;20.456;2023-06-14T04:07:34;97671.75;;;16.00
66170;BMP280;66757;44.024;20.456;2023-06-14T04:10:06;97675.75;;;15.91
66170;BMP280;66757;44.024;20.456;2023-06-14T04:12:31;97671.94;;;15.76
66170;BMP280;66757;44.024;20.456;2023-06-14T04:14:56;97673.66;;;16.00
66170;BMP280;66757;44.024;20.456;2023-06-14T04:17:22;97691.47;;;15.92
66170;BMP280;66757;44.024;20.456;2023-06-14T04:19:47;97683.00;;;16.22
66170;BMP280;66757;44.024;20.456;2023-06-14T04:22:13;97685.94;;;16.17
66170;BMP280;66757;44.024;20.456;2023-06-14T04:24:38;97677.84;;;16.29
66170;BMP280;66757;44.024;20.456;2023-06-14T04:27:03;97682.50;;;16.32
66170;BMP280;66757;44.024;20.456;2023-06-14T04:29:29;97681.81;;;16.35
66170;BMP280;66757;44.024;20.456;2023-06-14T04:31:55;97675.16;;;16.29
66170;BMP280;66757;44.024;20.456;2023-06-14T04:34:25;97671.63;;;16.40
66170;BMP280;66757;44.024;20.456;2023-06-14T04:36:54;97669.13;;;16.47
66170;BMP280;66757;44.024;20.456;2023-06-14T04:39:20;97668.50;;;16.38
66170;BMP280;66757;44.024;20.456;2023-06-14T04:41:46;97673.84;;;16.54
66170;BMP280;66757;44.024;20.456;2023-06-14T04:44:12;97679.38;;;16.14
66170;BMP280;66757;44.024;20.456;2023-06-14T04:46:38;97684.16;;;16.52
66170;BMP280;66757;44.024;20.456;2023-06-14T04:49:09;97683.13;;;16.25
66170;BMP280;66757;44.024;20.456;2023-06-14T04:51:35;97682.06;;;16.45
66170;BMP280;66757;44.024;20.456;2023-06-14T04:54:02;97688.59;;;16.79
66170;BMP280;66757;44.024;20.456;2023-06-14T04:56:28;97672.19;;;16.65
66170;BMP280;66757;44.024;20.456;2023-06-14T04:58:55;97688.06;;;16.74
66170;BMP280;66757;44.024;20.456;2023-06-14T05:01:21;97683.22;;;16.79
66170;BMP280;66757;44.024;20.456;2023-06-14T05:03:48;97693.16;;;16.79
66170;BMP280;66757;44.024;20.456;2023-06-14T05:06:14;97692.72;;;16.77
66170;BMP280;66757;44.024;20.456;2023-06-14T05:08:40;97690.81;;;16.77
66170;BMP280;66757;44.024;20.456;2023-06-14T05:11:05;97688.00;;;16.70
66170;BMP280;66757;44.024;20.456;2023-06-14T05:13:31;97684.03;;;16.64
66170;BMP280;66757;44.024;20.456;2023-06-14T05:15:58;97686.28;;;16.62
66170;BMP280;66757;44.024;20.456;2023-06-14T05:18:23;97686.78;;;17.03
66170;BMP280;66757;44.024;20.456;2023-06-14T05:20:50;97695.34;;;17.47
66170;BMP280;66757;44.024;20.456;2023-06-14T05:23:15;97697.41;;;17.53
66170;BMP280;66757;44.024;20.456;2023-06-14T05:25:42;97698.22;;;17.77
66170;BMP280;66757;44.024;20.456;2023-06-14T05:28:07;97692.06;;;17.53
66170;BMP280;66757;44.024;20.456;2023-06-14T05:30:33;97690.91;;;17.54
66170;BMP280;66757;44.024;20.456;2023-06-14T05:32:58;97690.66;;;18.05
66170;BMP280;66757;44.024;20.456;2023-06-14T05:35:23;97700.84;;;17.96
66170;BMP280;66757;44.024;20.456;2023-06-14T05:37:51;97688.63;;;18.21
66170;BMP280;66757;44.024;20.456;2023-06-14T05:40:17;97685.00;;;18.36
66170;BMP280;66757;44.024;20.456;2023-06-14T05:42:42;97685.50;;;18.42
66170;BMP280;66757;44.024;20.456;2023-06-14T05:45:08;97687.41;;;18.41
66170;BMP280;66757;44.024;20.456;2023-06-14T05:47:33;97680.59;;;18.48
66170;BMP280;66757;44.024;20.456;2023-06-14T05:49:58;97685.94;;;18.21
66170;BMP280;66757;44.024;20.456;2023-06-14T05:52:24;97689.88;;;18.80
66170;BMP280;66757;44.024;20.456;2023-06-14T05:54:50;97694.44;;;19.06
66170;BMP280;66757;44.024;20.456;2023-06-14T05:57:15;97691.34;;;19.00
66170;BMP280;66757;44.024;20.456;2023-06-14T05:59:41;97696.16;;;19.17
66170;BMP280;66757;44.024;20.456;2023-06-14T06:02:06;97693.97;;;18.70
66170;BMP280;66757;44.024;20.456;2023-06-14T06:04:31;97696.72;;;18.74
66170;BMP280;66757;44.024;20.456;2023-06-14T06:06:57;97696.97;;;19.25
66170;BMP280;66757;44.024;20.456;2023-06-14T06:09:22;97691.78;;;19.39
66170;BMP280;66757;44.024;20.456;2023-06-14T06:11:48;97693.09;;;19.56
66170;BMP280;66757;44.024;20.456;2023-06-14T06:14:13;97695.78;;;19.56
66170;BMP280;66757;44.024;20.456;2023-06-14T06:16:38;97692.81;;;19.68
66170;BMP280;66757;44.024;20.456;2023-06-14T06:19:04;97700.06;;;19.97
66170;BMP280;66757;44.024;20.456;2023-06-14T06:21:30;97693.78;;;19.86
66170;BMP280;66757;44.024;20.456;2023-06-14T06:23:56;97691.06;;;19.46
66170;BMP280;66757;44.024;20.456;2023-06-14T06:26:22;97687.44;;;19.64
66170;BMP280;66757;44.024;20.456;2023-06-14T06:28:47;97693.97;;;20.07
66170;BMP280;66757;44.024;20.456;2023-06-14T06:31:13;97698.81;;;20.35
66170;BMP280;66757;44.024;20.456;2023-06-14T06:33:38;97699.41;;;20.73
66170;BMP280;66757;44.024;20.456;2023-06-14T06:36:05;97692.78;;;20.56
66170;BMP280;66757;44.024;20.456;2023-06-14T06:38:30;97692.59;;;20.97
66170;BMP280;66757;44.024;20.456;2023-06-14T06:40:56;97694.63;;;21.24
66170;BMP280;66757;44.024;20.456;2023-06-14T06:43:21;97699.25;;;21.27
66170;BMP280;66757;44.024;20.456;2023-06-14T06:45:47;97694.97;;;21.09
66170;BMP280;66757;44.024;20.456;2023-06-14T06:48:12;97701.59;;;21.29
66170;BMP280;66757;44.024;20.456;2023-06-14T06:50:38;97706.25;;;21.39
66170;BMP280;66757;44.024;20.456;2023-06-14T06:53:03;97707.81;;;21.51
66170;BMP280;66757;44.024;20.456;2023-06-14T06:55:28;97704.75;;;21.77
66170;BMP280;66757;44.024;20.456;2023-06-14T06:57:54;97707.09;;;21.75
66170;BMP280;66757;44.024;20.456;2023-06-14T07:00:20;97713.66;;;21.85
66170;BMP280;66757;44.024;20.456;2023-06-14T07:02:45;97706.28;;;21.96
66170;BMP280;66757;44.024;20.456;2023-06-14T07:05:11;97706.31;;;21.74
66170;BMP280;66757;44.024;20.456;2023-06-14T07:07:36;97712.44;;;21.50
66170;BMP280;66757;44.024;20.456;2023-06-14T07:10:02;97715.53;;;21.59
66170;BMP280;66757;44.024;20.456;2023-06-14T07:12:29;97710.13;;;21.52
66170;BMP280;66757;44.024;20.456;2023-06-14T07:14:57;97709.03;;;22.13
66170;BMP280;66757;44.024;20.456;2023-06-14T07:17:22;97709.00;;;21.96
66170;BMP280;66757;44.024;20.456;2023-06-14T07:19:47;97710.13;;;22.48
66170;BMP280;66757;44.024;20.456;2023-06-14T07:22:13;97712.31;;;22.85
66170;BMP280;66757;44.024;20.456;2023-06-14T07:24:38;97704.09;;;23.17
66170;BMP280;66757;44.024;20.456;2023-06-14T07:27:05;97712.91;;;23.31
66170;BMP280;66757;44.024;20.456;2023-06-14T07:29:31;97708.41;;;23.03
66170;BMP280;66757;44.024;20.456;2023-06-14T07:31:56;97703.69;;;23.18
66170;BMP280;66757;44.024;20.456;2023-06-14T07:34:21;97704.28;;;23.47
66170;BMP280;66757;44.024;20.456;2023-06-14T07:36:47;97710.38;;;23.58
66170;BMP280;66757;44.024;20.456;2023-06-14T07:39:12;97712.00;;;23.52
66170;BMP280;66757;44.024;20.456;2023-06-14T07:41:38;97710.25;;;23.83
66170;BMP280;66757;44.024;20.456;2023-06-14T07:44:03;97710.59;;;23.85
66170;BMP280;66757;44.024;20.456;2023-06-14T07:46:28;97713.13;;;23.55
66170;BMP280;66757;44.024;20.456;2023-06-14T07:48:55;97718.09;;;23.67
66170;BMP280;66757;44.024;20.456;2023-06-14T07:51:20;97721.63;;;24.08
66170;BMP280;66757;44.024;20.456;2023-06-14T07:53:47;97722.44;;;22.74
66170;BMP280;66757;44.024;20.456;2023-06-14T07:56:12;97720.06;;;22.90
66170;BMP280;66757;44.024;20.456;2023-06-14T07:58:38;97728.38;;;23.27
66170;BMP280;66757;44.024;20.456;2023-06-14T08:01:03;97722.38;;;22.88
66170;BMP280;66757;44.024;20.456;2023-06-14T08:03:31;97718.50;;;22.92
66170;BMP280;66757;44.024;20.456;2023-06-14T08:05:57;97724.69;;;22.89
66170;BMP280;66757;44.024;20.456;2023-06-14T08:08:22;97731.88;;;23.90
66170;BMP280;66757;44.024;20.456;2023-06-14T08:10:47;97726.63;;;23.62
66170;BMP280;66757;44.024;20.456;2023-06-14T08:13:13;97724.03;;;23.99
66170;BMP280;66757;44.024;20.456;2023-06-14T08:15:38;97732.63;;;24.31
66170;BMP280;66757;44.024;20.456;2023-06-14T08:18:03;97736.53;;;24.68
66170;BMP280;66757;44.024;20.456;2023-06-14T08:20:29;97735.41;;;24.62
66170;BMP280;66757;44.024;20.456;2023-06-14T08:22:55;97736.97;;;24.63
66170;BMP280;66757;44.024;20.456;2023-06-14T08:25:21;97743.16;;;24.97
66170;BMP280;66757;44.024;20.456;2023-06-14T08:27:47;97739.09;;;24.82
66170;BMP280;66757;44.024;20.456;2023-06-14T08:30:12;97731.25;;;24.54
66170;BMP280;66757;44.024;20.456;2023-06-14T08:32:38;97736.78;;;24.77
66170;BMP280;66757;44.024;20.456;2023-06-14T08:35:04;97734.34;;;24.86
66170;BMP280;66757;44.024;20.456;2023-06-14T08:37:31;97731.97;;;25.22
66170;BMP280;66757;44.024;20.456;2023-06-14T08:39:58;97733.31;;;25.34
66170;BMP280;66757;44.024;20.456;2023-06-14T08:42:23;97731.56;;;25.23
66170;BMP280;66757;44.024;20.456;2023-06-14T08:44:49;97731.56;;;25.23
66170;BMP280;66757;44.024;20.456;2023-06-14T08:47:15;97728.31;;;25.05
66170;BMP280;66757;44.024;20.456;2023-06-14T08:49:45;97724.56;;;24.96
66170;BMP280;66757;44.024;20.456;2023-06-14T08:52:12;97723.50;;;25.16
66170;BMP280;66757;44.024;20.456;2023-06-14T08:54:38;97728.44;;;25.25
66170;BMP280;66757;44.024;20.456;2023-06-14T08:57:10;97730.00;;;25.53
66170;BMP280;66757;44.024;20.456;2023-06-14T08:59:37;97729.56;;;25.28
66170;BMP280;66757;44.024;20.456;2023-06-14T09:02:08;97725.91;;;25.88
66170;BMP280;66757;44.024;20.456;2023-06-14T09:04:38;97726.06;;;25.54
66170;BMP280;66757;44.024;20.456;2023-06-14T09:07:05;97727.75;;;25.44
66170;BMP280;66757;44.024;20.456;2023-06-14T09:09:31;97726.38;;;25.33
66170;BMP280;66757;44.024;20.456;2023-06-14T09:11:56;97725.56;;;25.36
66170;BMP280;66757;44.024;20.456;2023-06-14T09:14:23;97716.69;;;25.32
66170;BMP280;66757;44.024;20.456;2023-06-14T09:16:52;97712.56;;;24.93
66170;BMP280;66757;44.024;20.456;2023-06-14T09:19:23;97716.22;;;25.10
66170;BMP280;66757;44.024;20.456;2023-06-14T09:21:49;97714.03;;;25.55
66170;BMP280;66757;44.024;20.456;2023-06-14T09:24:15;97709.13;;;25.19
66170;BMP280;66757;44.024;20.456;2023-06-14T09:26:40;97710.56;;;25.51
66170;BMP280;66757;44.024;20.456;2023-06-14T09:29:06;97711.41;;;25.21
66170;BMP280;66757;44.024;20.456;2023-06-14T09:31:31;97713.91;;;25.62
66170;BMP280;66757;44.024;20.456;2023-06-14T09:33:58;97706.53;;;25.86
66170;BMP280;66757;44.024;20.456;2023-06-14T09:36:24;97701.19;;;25.82
66170;BMP280;66757;44.024;20.456;2023-06-14T09:41:19;97701.47;;;26.07
66170;BMP280;66757;44.024;20.456;2023-06-14T09:43:46;97694.63;;;26.23
66170;BMP280;66757;44.024;20.456;2023-06-14T09:46:12;97690.16;;;26.52
66170;BMP280;66757;44.024;20.456;2023-06-14T09:48:37;97701.75;;;27.60
66170;BMP280;66757;44.024;20.456;2023-06-14T09:51:04;97701.16;;;26.84
66170;BMP280;66757;44.024;20.456;2023-06-14T09:53:30;97708.44;;;27.88
66170;BMP280;66757;44.024;20.456;2023-06-14T09:55:57;97692.19;;;28.13
66170;BMP280;66757;44.024;20.456;2023-06-14T09:58:23;97694.50;;;29.07
66170;BMP280;66757;44.024;20.456;2023-06-14T10:00:51;97704.63;;;30.13
66170;BMP280;66757;44.024;20.456;2023-06-14T10:03:20;97695.41;;;30.50
66170;BMP280;66757;44.024;20.456;2023-06-14T10:05:47;97679.72;;;31.76
66170;BMP280;66757;44.024;20.456;2023-06-14T10:08:13;97690.66;;;32.03
66170;BMP280;66757;44.024;20.456;2023-06-14T10:10:40;97687.28;;;32.17
66170;BMP280;66757;44.024;20.456;2023-06-14T10:13:07;97684.75;;;31.68
66170;BMP280;66757;44.024;20.456;2023-06-14T10:15:35;97667.50;;;31.13
66170;BMP280;66757;44.024;20.456;2023-06-14T10:20:55;97660.66;;;28.66
66170;BMP280;66757;44.024;20.456;2023-06-14T10:23:23;97663.16;;;27.62
66170;BMP280;66757;44.024;20.456;2023-06-14T10:25:49;97657.84;;;27.71
66170;BMP280;66757;44.024;20.456;2023-06-14T10:28:16;97685.53;;;29.19
66170;BMP280;66757;44.024;20.456;2023-06-14T10:33:58;97667.84;;;30.75
66170;BMP280;66757;44.024;20.456;2023-06-14T10:36:25;97665.81;;;31.16
66170;BMP280;66757;44.024;20.456;2023-06-14T10:41:28;97672.41;;;30.17
66170;BMP280;66757;44.024;20.456;2023-06-14T10:46:55;97655.16;;;31.72
66170;BMP280;66757;44.024;20.456;2023-06-14T10:49:22;97645.09;;;30.57
66170;BMP280;66757;44.024;20.456;2023-06-14T10:52:02;97643.50;;;29.94
66170;BMP280;66757;44.024;20.456;2023-06-14T10:54:28;97654.41;;;29.03
66170;BMP280;66757;44.024;20.456;2023-06-14T10:56:53;97653.13;;;28.03
66170;BMP280;66757;44.024;20.456;2023-06-14T10:59:20;97658.44;;;28.61
66170;BMP280;66757;44.024;20.456;2023-06-14T11:01:55;97646.28;;;29.25
66170;BMP280;66757;44.024;20.456;2023-06-14T11:04:22;97637.00;;;28.22
66170;BMP280;66757;44.024;20.456;2023-06-14T11:06:53;97637.78;;;27.93
66170;BMP280;66757;44.024;20.456;2023-06-14T11:09:34;97639.88;;;28.56
66170;BMP280;66757;44.024;20.456;2023-06-14T11:12:04;97638.75;;;29.17
66170;BMP280;66757;44.024;20.456;2023-06-14T11:14:31;97636.19;;;28.75
66170;BMP280;66757;44.024;20.456;2023-06-14T11:16:57;97625.16;;;27.99
66170;BMP280;66757;44.024;20.456;2023-06-14T11:19:22;97624.59;;;27.92
66170;BMP280;66757;44.024;20.456;2023-06-14T11:21:48;97619.38;;;27.97
66170;BMP280;66757;44.024;20.456;2023-06-14T11:24:13;97627.91;;;28.12
66170;BMP280;66757;44.024;20.456;2023-06-14T11:26:39;97619.53;;;28.32
66170;BMP280;66757;44.024;20.456;2023-06-14T11:29:05;97624.59;;;27.92
66170;BMP280;66757;44.024;20.456;2023-06-14T11:31:30;97629.94;;;27.95
66170;BMP280;66757;44.024;20.456;2023-06-14T11:33:56;97625.44;;;27.89
66170;BMP280;66757;44.024;20.456;2023-06-14T11:36:22;97619.25;;;28.01
66170;BMP280;66757;44.024;20.456;2023-06-14T11:38:48;97612.56;;;28.18
66170;BMP280;66757;44.024;20.456;2023-06-14T11:41:13;97614.09;;;28.19
66170;BMP280;66757;44.024;20.456;2023-06-14T11:43:39;97615.81;;;28.26
66170;BMP280;66757;44.024;20.456;2023-06-14T11:46:11;97613.72;;;28.04
66170;BMP280;66757;44.024;20.456;2023-06-14T11:48:40;97602.50;;;28.15
66170;BMP280;66757;44.024;20.456;2023-06-14T11:51:05;97606.63;;;27.94
66170;BMP280;66757;44.024;20.456;2023-06-14T11:53:31;97606.47;;;27.98
66170;BMP280;66757;44.024;20.456;2023-06-14T11:55:57;97602.56;;;27.70
66170;BMP280;66757;44.024;20.456;2023-06-14T11:58:23;97586.88;;;27.90
66170;BMP280;66757;44.024;20.456;2023-06-14T12:00:51;97584.06;;;28.07
66170;BMP280;66757;44.024;20.456;2023-06-14T12:03:17;97586.84;;;28.19
66170;BMP280;66757;44.024;20.456;2023-06-14T12:05:42;97585.47;;;27.70
66170;BMP280;66757;44.024;20.456;2023-06-14T12:08:08;97581.00;;;28.17
66170;BMP280;66757;44.024;20.456;2023-06-14T12:10:41;97582.22;;;27.75
66170;BMP280;66757;44.024;20.456;2023-06-14T12:13:08;97574.78;;;27.63
66170;BMP280;66757;44.024;20.456;2023-06-14T12:15:34;97577.34;;;27.53
66170;BMP280;66757;44.024;20.456;2023-06-14T12:18:00;97569.81;;;27.45
66170;BMP280;66757;44.024;20.456;2023-06-14T12:20:29;97575.56;;;27.47
66170;BMP280;66757;44.024;20.456;2023-06-14T12:22:55;97567.56;;;27.40
66170;BMP280;66757;44.024;20.456;2023-06-14T12:25:33;97573.56;;;27.19
66170;BMP280;66757;44.024;20.456;2023-06-14T12:28:06;97575.59;;;27.31
66170;BMP280;66757;44.024;20.456;2023-06-14T12:30:32;97587.34;;;27.12
66170;BMP280;66757;44.024;20.456;2023-06-14T12:32:57;97589.22;;;27.15
66170;BMP280;66757;44.024;20.456;2023-06-14T12:35:23;97575.75;;;27.24
66170;BMP280;66757;44.024;20.456;2023-06-14T12:37:48;97590.91;;;27.08
66170;BMP280;66757;44.024;20.456;2023-06-14T12:40:14;97588.38;;;26.85
66170;BMP280;66757;44.024;20.456;2023-06-14T12:42:39;97590.75;;;26.83
66170;BMP280;66757;44.024;20.456;2023-06-14T12:45:05;97599.00;;;26.80
66170;BMP280;66757;44.024;20.456;2023-06-14T12:47:32;97599.50;;;26.75
66170;BMP280;66757;44.024;20.456;2023-06-14T12:49:57;97598.47;;;26.69
66170;BMP280;66757;44.024;20.456;2023-06-14T12:52:22;97596.22;;;26.47
66170;BMP280;66757;44.024;20.456;2023-06-14T12:54:48;97593.25;;;26.42
66170;BMP280;66757;44.024;20.456;2023-06-14T12:57:13;97589.28;;;26.79
66170;BMP280;66757;44.024;20.456;2023-06-14T12:59:38;97591.75;;;26.73
66170;BMP280;66757;44.024;20.456;2023-06-14T13:02:13;97594.59;;;26.50
66170;BMP280;66757;44.024;20.456;2023-06-14T13:04:38;97588.22;;;26.40
66170;BMP280;66757;44.024;20.456;2023-06-14T13:07:04;97590.56;;;26.74
66170;BMP280;66757;44.024;20.456;2023-06-14T13:09:30;97598.94;;;26.47
66170;BMP280;66757;44.024;20.456;2023-06-14T13:11:55;97601.91;;;26.53
66170;BMP280;66757;44.024;20.456;2023-06-14T13:14:20;97591.75;;;26.37
66170;BMP280;66757;44.024;20.456;2023-06-14T13:16:45;97598.69;;;26.42
66170;BMP280;66757;44.024;20.456;2023-06-14T13:19:11;97601.72;;;26.24
66170;BMP280;66757;44.024;20.456;2023-06-14T13:21:36;97602.69;;;25.94
66170;BMP280;66757;44.024;20.456;2023-06-14T13:24:01;97598.00;;;25.98
66170;BMP280;66757;44.024;20.456;2023-06-14T13:26:27;97584.81;;;25.77
66170;BMP280;66757;44.024;20.456;2023-06-14T13:28:52;97587.19;;;25.52
66170;BMP280;66757;44.024;20.456;2023-06-14T13:31:17;97595.06;;;25.46
66170;BMP280;66757;44.024;20.456;2023-06-14T13:33:43;97590.81;;;25.65
66170;BMP280;66757;44.024;20.456;2023-06-14T13:36:08;97601.00;;;25.61
66170;BMP280;66757;44.024;20.456;2023-06-14T13:38:33;97597.69;;;25.73
66170;BMP280;66757;44.024;20.456;2023-06-14T13:40:59;97596.19;;;25.26
66170;BMP280;66757;44.024;20.456;2023-06-14T13:43:24;97600.78;;;25.29
66170;BMP280;66757;44.024;20.456;2023-06-14T13:45:49;97590.72;;;25.49
66170;BMP280;66757;44.024;20.456;2023-06-14T13:48:15;97591.06;;;25.51
66170;BMP280;66757;44.024;20.456;2023-06-14T13:50:40;97598.06;;;25.52
66170;BMP280;66757;44.024;20.456;2023-06-14T13:53:05;97596.06;;;25.09
66170;BMP280;66757;44.024;20.456;2023-06-14T13:55:31;97604.13;;;25.13
66170;BMP280;66757;44.024;20.456;2023-06-14T13:57:56;97606.84;;;25.36
66170;BMP280;66757;44.024;20.456;2023-06-14T14:00:22;97603.84;;;25.31
66170;BMP280;66757;44.024;20.456;2023-06-14T14:02:48;97603.25;;;25.19
66170;BMP280;66757;44.024;20.456;2023-06-14T14:05:15;97601.81;;;25.11